Strona główna
METAR-TAF:

METAR-TAF

Lotnisko :

Luxeuil-les-Bains, Francja

Szerokość geograficzna: 47-47N, Długość geograficzna: 006-21E, wysokość: 278 m

Aktualna obserwacja pogody

Raport powstał 19 minut temu, godzina 22:30 UTC
Wiatr 1 kt od zachodnio-południowy zachód
Temperatura 9°C
Wilgotność 53%
Ciśnienie 1026 hPa
Widzialność 10 km lub więcej
Brak chmur poniżej 1500 m i brak chmur cumulonimbus

METAR: LFSX 062230Z AUTO 25001KT CAVOK 09/00 Q1026

czas: 00:49 (22:49 UTC)

Prognoza

Raport powstał 2 godziny i 49 minut temu, godzina 20:00 UTC
Prognoza ważna od 06 godzina 21 UTC do 07 godzina 21 UTC
Wiatr 3 kt z kierunków zmiennych
Widzialność 10 km lub więcej
Brak chmur poniżej 1500 m i brak chmur cumulonimbus

TAF: LFSX 062000Z 0621/0721 VRB03KT CAVOK

Obserwacja i prognoza pogody dla ponad 4000 lotnisk (raport METAR i TAF).

Dostępne stacje oznaczono żółtymi i czerwonymi punktami na mapie.

Najedź kursorem aby zobaczyć nazwę stacji.

Kliknij aby zobaczyć obserwacje i prognozy pogody.

Aby zmienić mapę: kliknij na zielony przycisk z czarnym krzyżykiem, aby powiększyć; na zielony przycisk z myślnikiem, aby pomniejszyć; na zielone strzałki, aby przejść do map sąsiednich.


METAR-TAF: